Time;durP1;ratioP1;P1;durP2;ratioP2;P2;SDS_P1;SDS_P2;PMS_P1;PMS_P2;Temp;Humidity;BMP_temperature;BMP_pressure;BME280_temperature;BME280_humidity;BME280_pressure;Samples;Min_cycle;Max_cycle;Signal;HPM_P1;HPM_P2
2022/07/12 00:00:45;;;;;;;11.88;7.50;;;10.30;99.90;;;;;;5073832;28;20385;-73
2022/07/12 00:03:10;;;;;;;9.07;7.10;;;10.30;99.90;;;;;;5073863;28;20020;-73
2022/07/12 00:05:36;;;;;;;9.05;7.68;;;10.40;99.90;;;;;;5073775;28;20024;-73
2022/07/12 00:08:03;;;;;;;8.13;6.85;;;10.40;99.90;;;;;;5072466;28;20496;-74
2022/07/12 00:10:28;;;;;;;9.55;7.75;;;10.40;99.90;;;;;;5073564;28;20021;-73
2022/07/12 00:12:54;;;;;;;8.50;7.00;;;10.40;99.90;;;;;;5072459;28;20023;-73
2022/07/12 00:15:20;;;;;;;10.82;7.75;;;10.40;99.90;;;;;;5073607;28;20037;-73
2022/07/12 00:17:46;;;;;;;10.35;7.00;;;10.50;99.90;;;;;;5062868;28;20393;-73
2022/07/12 00:20:12;;;;;;;10.20;7.55;;;10.50;99.90;;;;;;5053513;28;20024;-73
2022/07/12 00:22:38;;;;;;;10.52;7.55;;;10.50;99.90;;;;;;5053584;28;20036;-74
2022/07/12 00:25:04;;;;;;;11.90;7.80;;;10.50;99.90;;;;;;5053406;28;20021;-73
2022/07/12 00:27:29;;;;;;;8.27;7.18;;;10.50;99.90;;;;;;5052172;28;20120;-73
2022/07/12 00:29:55;;;;;;;9.80;7.32;;;10.60;99.90;;;;;;5053321;28;20060;-73
2022/07/12 00:32:21;;;;;;;10.85;7.05;;;10.60;99.90;;;;;;5053337;28;20060;-73
2022/07/12 00:34:47;;;;;;;10.20;6.85;;;10.60;99.90;;;;;;5053116;28;20068;-73
2022/07/12 00:37:12;;;;;;;6.97;6.22;;;10.60;99.90;;;;;;5053303;28;20021;-74
2022/07/12 00:39:38;;;;;;;10.52;6.55;;;10.50;99.90;;;;;;5052008;28;20036;-73
2022/07/12 00:42:04;;;;;;;8.30;6.47;;;10.60;99.90;;;;;;5053204;28;20070;-74
2022/07/12 00:44:33;;;;;;;11.00;7.75;;;10.50;99.90;;;;;;5051807;28;20051;-73
2022/07/12 00:47:02;;;;;;;8.65;7.18;;;10.50;99.90;;;;;;5051755;28;20386;-73
2022/07/12 00:49:29;;;;;;;9.48;6.90;;;10.60;99.90;;;;;;5051812;28;20021;-73
2022/07/12 00:51:55;;;;;;;12.80;7.63;;;10.60;99.90;;;;;;5053027;28;20029;-73
2022/07/12 00:54:20;;;;;;;14.55;7.63;;;10.60;99.90;;;;;;5052999;28;20572;-73
2022/07/12 00:56:47;;;;;;;8.98;7.03;;;10.60;99.90;;;;;;5052903;28;20029;-74
2022/07/12 00:59:13;;;;;;;8.48;6.97;;;10.60;99.90;;;;;;5052928;28;20020;-73
2022/07/12 01:01:39;;;;;;;11.00;7.05;;;10.60;99.90;;;;;;5051664;28;20109;-74
2022/07/12 01:04:05;;;;;;;8.82;6.72;;;10.60;99.90;;;;;;5052892;28;20029;-73
2022/07/12 01:06:32;;;;;;;10.07;7.30;;;10.60;99.90;;;;;;5051440;28;20466;-73
2022/07/12 01:09:01;;;;;;;10.27;6.53;;;10.60;99.90;;;;;;5052899;28;20023;-73
2022/07/12 01:11:27;;;;;;;9.55;6.55;;;10.60;99.90;;;;;;5052902;28;20092;-73
2022/07/12 01:13:54;;;;;;;10.65;7.00;;;10.60;99.90;;;;;;5052769;28;20021;-73
2022/07/12 01:16:20;;;;;;;9.32;7.53;;;10.50;99.90;;;;;;5052673;28;20033;-73
2022/07/12 01:18:46;;;;;;;11.65;9.00;;;10.60;99.90;;;;;;5051556;28;20119;-73
2022/07/12 01:21:17;;;;;;;12.35;7.05;;;10.50;99.90;;;;;;5051389;28;20137;-73
2022/07/12 01:23:45;;;;;;;11.18;7.70;;;10.50;99.90;;;;;;5052894;28;20390;-73
2022/07/12 01:26:12;;;;;;;11.88;7.47;;;10.50;99.90;;;;;;5052623;28;20029;-73
2022/07/12 01:28:38;;;;;;;10.15;6.85;;;10.50;99.90;;;;;;5051409;28;20485;-74
2022/07/12 01:31:04;;;;;;;11.30;7.32;;;10.50;99.90;;;;;;5055139;28;20025;-73
2022/07/12 01:33:30;;;;;;;10.40;6.22;;;10.50;99.90;;;;;;5056882;28;20024;-73
2022/07/12 01:35:57;;;;;;;10.70;7.63;;;10.50;99.90;;;;;;5056542;28;20029;-72
2022/07/12 01:38:22;;;;;;;10.15;6.57;;;10.50;99.90;;;;;;5056628;28;20379;-73
2022/07/12 01:40:48;;;;;;;8.60;6.05;;;10.50;99.90;;;;;;5056480;28;20037;-73
2022/07/12 01:43:14;;;;;;;7.30;5.70;;;10.50;99.90;;;;;;5056618;28;20037;-74
2022/07/12 01:45:41;;;;;;;7.57;5.03;;;10.50;99.90;;;;;;5056438;28;20100;-72
2022/07/12 01:48:07;;;;;;;7.13;5.05;;;10.50;99.90;;;;;;5056498;28;20021;-73
2022/07/12 01:50:33;;;;;;;6.10;4.70;;;10.50;99.90;;;;;;5055138;28;20044;-73
2022/07/12 01:53:00;;;;;;;4.97;4.53;;;10.50;99.90;;;;;;5056231;28;20096;-73
2022/07/12 01:55:26;;;;;;;4.35;3.95;;;10.60;99.90;;;;;;5054946;28;20038;-73
2022/07/12 01:57:53;;;;;;;5.07;4.15;;;10.60;99.90;;;;;;5058967;28;20031;-73
2022/07/12 02:00:21;;;;;;;4.40;3.70;;;10.60;99.90;;;;;;5074939;28;20038;-73
2022/07/12 02:02:47;;;;;;;4.78;4.32;;;10.50;99.90;;;;;;5074807;28;20047;-73
2022/07/12 02:05:13;;;;;;;4.18;3.75;;;10.60;99.90;;;;;;5076119;28;20426;-73
2022/07/12 02:07:39;;;;;;;6.18;3.88;;;10.60;99.90;;;;;;5076054;28;20111;-73
2022/07/12 02:10:07;;;;;;;5.38;3.67;;;10.60;99.90;;;;;;5074818;28;20473;-73
2022/07/12 02:12:33;;;;;;;5.60;3.90;;;10.60;99.90;;;;;;5075929;28;20103;-73
2022/07/12 02:15:00;;;;;;;3.90;3.60;;;10.60;99.90;;;;;;5074591;28;20124;-73
2022/07/12 02:17:25;;;;;;;3.55;3.25;;;10.60;99.90;;;;;;5074588;28;20020;-73
2022/07/12 02:19:52;;;;;;;4.35;3.92;;;10.70;99.90;;;;;;5074607;28;20036;-73
2022/07/12 02:22:18;;;;;;;5.43;3.90;;;10.60;99.90;;;;;;5074473;28;20147;-73
2022/07/12 02:24:44;;;;;;;4.22;3.83;;;10.60;99.90;;;;;;5075783;28;20033;-73
2022/07/12 02:27:10;;;;;;;4.93;4.47;;;10.60;99.90;;;;;;5075600;28;20367;-73
2022/07/12 02:29:35;;;;;;;4.40;4.00;;;10.60;99.90;;;;;;5075728;28;20027;-73
2022/07/12 02:32:02;;;;;;;4.15;3.85;;;10.70;99.90;;;;;;5075531;28;20044;-73
2022/07/12 02:34:28;;;;;;;9.35;3.75;;;10.70;99.90;;;;;;5075451;28;20036;-73
2022/07/12 02:36:54;;;;;;;4.22;3.72;;;10.70;99.90;;;;;;5075468;28;20021;-73
2022/07/12 02:39:19;;;;;;;5.07;3.60;;;10.70;99.90;;;;;;5075564;28;20108;-73
2022/07/12 02:41:45;;;;;;;3.88;3.38;;;10.70;99.90;;;;;;5075323;28;20031;-74
2022/07/12 02:44:10;;;;;;;4.88;3.88;;;10.80;99.90;;;;;;5075472;28;20051;-73
2022/07/12 02:46:36;;;;;;;4.65;3.30;;;10.80;99.90;;;;;;5075250;28;20394;-73
2022/07/12 02:49:02;;;;;;;5.72;4.47;;;10.80;99.90;;;;;;5069283;28;20021;-72
2022/07/12 02:51:28;;;;;;;5.50;4.32;;;10.80;99.90;;;;;;5054117;28;20375;-73
2022/07/12 02:53:53;;;;;;;4.25;3.83;;;10.80;99.90;;;;;;5055039;28;20086;-72
2022/07/12 02:56:19;;;;;;;4.18;3.78;;;10.80;99.90;;;;;;5055135;28;20122;-73
2022/07/12 02:58:45;;;;;;;4.75;4.35;;;10.80;99.90;;;;;;5065653;28;20389;-74
2022/07/12 03:01:11;;;;;;;4.93;3.95;;;10.80;99.90;;;;;;5075126;28;20474;-73
2022/07/12 03:03:37;;;;;;;3.80;3.50;;;10.90;99.90;;;;;;5075028;28;20028;-74
2022/07/12 03:06:03;;;;;;;5.72;3.50;;;10.90;99.90;;;;;;5075055;28;20043;-72
2022/07/12 03:08:28;;;;;;;6.13;4.07;;;10.90;99.90;;;;;;5073641;28;20017;-72
2022/07/12 03:10:54;;;;;;;4.60;4.20;;;10.90;99.90;;;;;;5073644;28;20170;-73
2022/07/12 03:13:20;;;;;;;4.43;3.83;;;10.80;99.90;;;;;;5074941;28;20013;-74
2022/07/12 03:15:45;;;;;;;4.80;4.40;;;10.90;99.90;;;;;;5074793;28;20047;-73
2022/07/12 03:18:11;;;;;;;4.60;3.72;;;10.90;99.90;;;;;;5074740;28;20024;-73
2022/07/12 03:20:37;;;;;;;4.00;3.65;;;10.90;99.90;;;;;;5074769;28;20020;-73
2022/07/12 03:23:03;;;;;;;5.07;3.92;;;10.90;99.90;;;;;;5073395;28;20489;-74
2022/07/12 03:25:29;;;;;;;4.28;3.83;;;10.90;99.90;;;;;;5074828;28;20078;-73
2022/07/12 03:27:55;;;;;;;4.13;3.80;;;10.90;99.90;;;;;;5073233;28;20020;-73
2022/07/12 03:30:20;;;;;;;6.45;3.72;;;10.90;99.90;;;;;;5074573;28;20027;-73
2022/07/12 03:32:46;;;;;;;8.50;3.70;;;11.00;99.90;;;;;;5074572;28;20080;-73
2022/07/12 03:35:12;;;;;;;4.40;4.00;;;11.00;99.90;;;;;;5074381;28;20032;-74
2022/07/12 03:37:44;;;;;;;3.42;3.20;;;11.00;99.90;;;;;;5073104;28;20016;-74
2022/07/12 03:40:11;;;;;;;4.93;4.10;;;11.10;99.90;;;;;;5074332;28;20024;-74
2022/07/12 03:42:36;;;;;;;4.57;4.18;;;11.10;99.90;;;;;;5074241;28;20052;-73
2022/07/12 03:45:03;;;;;;;5.03;3.42;;;11.10;99.90;;;;;;5072937;28;20024;-73
2022/07/12 03:47:28;;;;;;;9.43;4.00;;;11.10;99.90;;;;;;5074203;28;20101;-73
2022/07/12 03:49:56;;;;;;;5.88;3.22;;;11.10;99.90;;;;;;5061860;28;20126;-73
2022/07/12 03:52:21;;;;;;;3.38;3.08;;;11.20;99.90;;;;;;5052243;28;20025;-74
2022/07/12 03:54:47;;;;;;;4.05;3.38;;;11.20;99.90;;;;;;5053977;28;20042;-73
2022/07/12 03:57:13;;;;;;;4.78;3.13;;;11.20;99.90;;;;;;5054063;28;20043;-74
2022/07/12 03:59:39;;;;;;;3.30;2.90;;;11.20;99.90;;;;;;5073412;28;20025;-73
2022/07/12 04:02:04;;;;;;;3.53;3.22;;;11.20;99.90;;;;;;5074056;28;20165;-74
2022/07/12 04:04:30;;;;;;;4.43;3.97;;;11.40;99.90;;;;;;5073686;28;20071;-73
2022/07/12 04:06:56;;;;;;;3.75;3.45;;;11.60;99.90;;;;;;5073793;28;20031;-74
2022/07/12 04:09:21;;;;;;;4.35;3.10;;;11.80;99.90;;;;;;5072468;28;20111;-74
2022/07/12 04:11:47;;;;;;;4.25;3.63;;;11.90;99.90;;;;;;5073955;28;20048;-74
2022/07/12 04:14:13;;;;;;;3.33;2.70;;;12.00;99.90;;;;;;5072238;28;20111;-73
2022/07/12 04:16:39;;;;;;;3.13;2.92;;;12.00;99.90;;;;;;5073599;28;20033;-74
2022/07/12 04:19:05;;;;;;;3.15;2.90;;;12.00;99.90;;;;;;5073502;28;20027;-73
2022/07/12 04:21:31;;;;;;;3.55;3.20;;;12.10;99.90;;;;;;5073636;28;20100;-74
2022/07/12 04:23:57;;;;;;;3.95;3.55;;;12.30;99.90;;;;;;5073431;28;20028;-73
2022/07/12 04:26:23;;;;;;;2.95;2.75;;;12.50;99.90;;;;;;5073434;28;20070;-73
2022/07/12 04:28:49;;;;;;;3.10;2.80;;;12.70;99.90;;;;;;5073354;28;20017;-74
2022/07/12 04:31:14;;;;;;;2.75;2.40;;;12.80;99.90;;;;;;5073511;28;20047;-73
2022/07/12 04:33:40;;;;;;;2.67;2.45;;;13.00;99.90;;;;;;5073329;28;20021;-73
2022/07/12 04:36:06;;;;;;;2.67;2.47;;;13.10;99.90;;;;;;5073285;28;20487;-73
2022/07/12 04:38:31;;;;;;;3.50;2.45;;;13.10;99.90;;;;;;5071877;28;20017;-73
2022/07/12 04:40:57;;;;;;;5.32;2.33;;;13.10;99.90;;;;;;5071929;28;20028;-73
2022/07/12 04:43:24;;;;;;;5.35;2.83;;;13.20;99.90;;;;;;5073233;28;20359;-74
2022/07/12 04:45:50;;;;;;;4.05;2.40;;;13.30;99.90;;;;;;5073238;28;20521;-73
2022/07/12 04:48:16;;;;;;;3.72;2.33;;;13.40;99.90;;;;;;5071713;28;20170;-73
2022/07/12 04:50:42;;;;;;;3.90;2.00;;;13.20;99.90;;;;;;5052630;28;20108;-73
2022/07/12 04:53:08;;;;;;;3.75;2.40;;;13.00;99.90;;;;;;5053119;28;20094;-73
2022/07/12 04:55:34;;;;;;;3.45;2.13;;;12.80;99.90;;;;;;5051636;28;20032;-73
2022/07/12 04:58:00;;;;;;;2.90;2.33;;;12.80;99.90;;;;;;5057878;28;20048;-74
2022/07/12 05:00:25;;;;;;;1.95;1.85;;;12.80;99.90;;;;;;5072930;28;20078;-73
2022/07/12 05:02:51;;;;;;;1.88;1.77;;;12.70;99.90;;;;;;5071747;28;20558;-74
2022/07/12 05:05:17;;;;;;;2.60;2.40;;;12.70;99.90;;;;;;5071957;28;20029;-73
2022/07/12 05:07:43;;;;;;;3.15;2.60;;;12.80;99.90;;;;;;5072959;28;20423;-75
2022/07/12 05:10:08;;;;;;;4.53;2.08;;;12.90;99.90;;;;;;5072902;28;20033;-73
2022/07/12 05:12:35;;;;;;;2.75;2.55;;;12.90;99.90;;;;;;5072908;28;20040;-74
2022/07/12 05:15:01;;;;;;;3.58;2.53;;;13.00;99.90;;;;;;5071404;28;20037;-73
2022/07/12 05:17:26;;;;;;;3.60;2.20;;;13.10;99.90;;;;;;5072919;28;20066;-74
2022/07/12 05:19:52;;;;;;;3.05;2.30;;;13.10;99.90;;;;;;5072728;28;20531;-73
2022/07/12 05:22:17;;;;;;;4.72;2.65;;;13.20;99.90;;;;;;5071570;28;20024;-73
2022/07/12 05:24:43;;;;;;;2.92;2.60;;;13.20;99.90;;;;;;5072685;28;20044;-73
2022/07/12 05:27:09;;;;;;;2.15;2.05;;;13.20;99.90;;;;;;5072826;28;20385;-74
2022/07/12 05:29:35;;;;;;;2.53;2.33;;;13.10;99.90;;;;;;5071410;28;20046;-73
2022/07/12 05:32:01;;;;;;;2.95;2.75;;;13.20;99.90;;;;;;5072652;28;20541;-73
2022/07/12 05:34:27;;;;;;;3.22;2.47;;;13.20;99.90;;;;;;5071095;28;20112;-73
2022/07/12 05:36:53;;;;;;;2.70;2.50;;;13.20;99.90;;;;;;5072650;28;20020;-73
2022/07/12 05:39:19;;;;;;;5.00;2.63;;;13.20;99.90;;;;;;5072595;28;20028;-73
2022/07/12 05:41:46;;;;;;;3.38;2.33;;;13.30;99.90;;;;;;5072684;28;20079;-74
2022/07/12 05:44:12;;;;;;;3.92;2.83;;;13.40;99.90;;;;;;5071217;28;20405;-74
2022/07/12 05:46:39;;;;;;;3.15;2.70;;;13.40;99.90;;;;;;5063709;28;20040;-73
2022/07/12 05:49:05;;;;;;;3.13;2.90;;;13.50;99.90;;;;;;5045248;28;20045;-73
2022/07/12 05:54:17;;;;;;;4.40;3.03;;;13.60;99.90;;;;;;5052506;28;20398;-73
2022/07/12 05:56:43;;;;;;;3.80;2.65;;;13.70;99.90;;;;;;5054549;28;20025;-73
2022/07/12 05:59:09;;;;;;;2.47;2.28;;;13.70;99.90;;;;;;5056644;28;20025;-73
2022/07/12 06:01:34;;;;;;;2.78;2.38;;;13.70;99.90;;;;;;5071360;28;20017;-73
2022/07/12 06:04:01;;;;;;;3.53;2.30;;;13.70;99.90;;;;;;5072317;28;20099;-74
2022/07/12 06:06:26;;;;;;;3.90;2.40;;;13.70;99.90;;;;;;5070884;28;20098;-74
2022/07/12 06:08:52;;;;;;;2.35;2.15;;;13.70;99.90;;;;;;5072325;28;20028;-73
2022/07/12 06:11:18;;;;;;;2.55;2.38;;;13.80;99.90;;;;;;5072333;28;20389;-74
2022/07/12 06:13:43;;;;;;;2.33;2.13;;;14.00;99.90;;;;;;5072372;28;20112;-74
2022/07/12 06:16:10;;;;;;;5.07;2.30;;;14.00;99.90;;;;;;5072907;28;20059;-73
2022/07/12 06:18:36;;;;;;;3.75;2.58;;;14.00;99.90;;;;;;5059099;28;20422;-74
2022/07/12 06:21:01;;;;;;;3.30;2.55;;;14.00;99.90;;;;;;5054526;28;20082;-74
2022/07/12 06:23:27;;;;;;;3.45;2.25;;;14.20;99.90;;;;;;5055968;28;20029;-74
2022/07/12 06:25:53;;;;;;;5.32;1.92;;;14.30;99.90;;;;;;5054296;28;20021;-73
2022/07/12 06:28:19;;;;;;;4.55;2.38;;;14.50;99.90;;;;;;5055632;28;20032;-74
2022/07/12 06:30:44;;;;;;;3.45;3.15;;;14.60;99.90;;;;;;5055616;28;20037;-73
2022/07/12 06:33:10;;;;;;;3.47;3.17;;;14.70;99.90;;;;;;5055820;28;20052;-74
2022/07/12 06:35:36;;;;;;;6.75;3.60;;;14.80;99.90;;;;;;5055475;28;20486;-74
2022/07/12 06:38:02;;;;;;;8.80;3.85;;;14.80;99.90;;;;;;5055492;28;20028;-73
2022/07/12 06:40:28;;;;;;;8.52;4.40;;;14.90;99.90;;;;;;5054085;28;20029;-73
2022/07/12 06:42:53;;;;;;;8.73;5.25;;;14.90;99.90;;;;;;5055539;28;20032;-74
2022/07/12 06:45:19;;;;;;;8.48;4.70;;;15.00;99.90;;;;;;5055648;28;20025;-73
2022/07/12 06:47:45;;;;;;;5.70;4.75;;;14.80;99.90;;;;;;5055423;28;20094;-74
2022/07/12 06:50:10;;;;;;;6.28;4.47;;;14.80;99.90;;;;;;5055283;28;20492;-74
2022/07/12 06:52:36;;;;;;;7.72;3.92;;;14.80;99.90;;;;;;5054031;28;20072;-74
2022/07/12 06:55:02;;;;;;;5.00;3.50;;;14.80;99.90;;;;;;5055083;28;20037;-74
2022/07/12 06:57:29;;;;;;;7.97;3.40;;;14.90;99.90;;;;;;5053891;28;20028;-74
2022/07/12 06:59:56;;;;;;;6.78;3.60;;;15.10;99.90;;;;;;5055150;28;20025;-74
2022/07/12 07:02:22;;;;;;;6.88;4.88;;;15.30;99.90;;;;;;5055063;28;20052;-74
2022/07/12 07:04:48;;;;;;;6.40;3.35;;;15.60;99.90;;;;;;5055014;28;20057;-73
2022/07/12 07:07:13;;;;;;;5.00;3.25;;;15.70;99.90;;;;;;5054999;28;20029;-74
2022/07/12 07:09:39;;;;;;;6.05;3.40;;;15.70;99.90;;;;;;5055084;28;20441;-73
2022/07/12 07:12:05;;;;;;;5.72;3.35;;;15.70;99.90;;;;;;5054922;28;20025;-74
2022/07/12 07:14:31;;;;;;;4.07;2.90;;;16.00;99.90;;;;;;5054737;28;20037;-74
2022/07/12 07:16:57;;;;;;;7.55;2.67;;;16.20;99.90;;;;;;5054727;28;20467;-73
2022/07/12 07:19:24;;;;;;;2.30;2.10;;;16.40;99.90;;;;;;5054939;28;20091;-73
2022/07/12 07:21:50;;;;;;;2.83;2.05;;;16.30;99.90;;;;;;5053505;28;20017;-73
2022/07/12 07:24:16;;;;;;;3.53;2.38;;;16.20;99.90;;;;;;5054579;28;20450;-73
2022/07/12 07:26:42;;;;;;;2.72;2.05;;;16.20;99.90;;;;;;5054478;28;20074;-74
2022/07/12 07:31:51;;;;;;;3.42;2.63;;;16.10;99.90;;;;;;5054552;28;20059;-73
2022/07/12 07:34:17;;;;;;;5.32;2.72;;;16.30;99.90;;;;;;5054329;28;20025;-73
2022/07/12 07:36:43;;;;;;;5.45;2.58;;;16.50;99.90;;;;;;5054414;28;20024;-74
2022/07/12 07:39:09;;;;;;;4.55;3.03;;;16.80;99.90;;;;;;5054472;28;20108;-73
2022/07/12 07:41:35;;;;;;;6.20;3.08;;;17.00;99.90;;;;;;5054321;28;20059;-74
2022/07/12 07:44:01;;;;;;;2.97;2.53;;;17.20;99.90;;;;;;5054373;28;20483;-73
2022/07/12 07:46:26;;;;;;;2.63;1.98;;;17.10;99.90;;;;;;5054199;28;20032;-73
2022/07/12 07:48:52;;;;;;;2.58;1.83;;;16.80;99.90;;;;;;5054158;28;20040;-73
2022/07/12 07:51:17;;;;;;;3.92;1.58;;;16.80;99.90;;;;;;5054255;28;20104;-73
2022/07/12 07:53:43;;;;;;;1.20;1.20;;;16.80;99.90;;;;;;5054079;28;20105;-74
2022/07/12 07:56:09;;;;;;;3.33;2.00;;;16.70;98.80;;;;;;5053985;28;20114;-73
2022/07/12 07:58:34;;;;;;;1.55;1.45;;;17.00;99.90;;;;;;5065946;28;20078;-74
2022/07/12 08:01:00;;;;;;;1.58;1.20;;;16.80;94.30;;;;;;5073857;28;20026;-73
2022/07/12 08:03:26;;;;;;;2.08;1.95;;;16.60;97.00;;;;;;5073959;28;20027;-73
2022/07/12 08:05:52;;;;;;;1.40;1.30;;;16.50;99.90;;;;;;5073739;28;20029;-73
2022/07/12 08:08:18;;;;;;;1.45;1.08;;;16.30;99.90;;;;;;5073747;28;20020;-74
2022/07/12 08:10:44;;;;;;;1.63;1.50;;;16.30;99.90;;;;;;5072473;28;20025;-73
2022/07/12 08:13:10;;;;;;;1.48;1.38;;;16.30;99.90;;;;;;5072412;28;20021;-74
2022/07/12 08:15:36;;;;;;;2.78;1.13;;;16.50;99.90;;;;;;5072282;28;20086;-73
2022/07/12 08:18:03;;;;;;;2.22;1.23;;;16.50;99.90;;;;;;5073563;28;20024;-74
2022/07/12 08:20:29;;;;;;;1.15;1.05;;;16.50;99.90;;;;;;5073566;28;20045;-73
2022/07/12 08:22:54;;;;;;;1.33;1.00;;;16.70;99.90;;;;;;5073427;28;20462;-73
2022/07/12 08:25:20;;;;;;;2.22;1.30;;;16.80;99.90;;;;;;5072229;28;20029;-74
2022/07/12 08:27:46;;;;;;;1.42;1.35;;;16.70;98.00;;;;;;5073279;28;20474;-74
2022/07/12 08:30:11;;;;;;;3.20;1.45;;;16.50;99.90;;;;;;5072145;28;20110;-73
2022/07/12 08:32:42;;;;;;;5.75;1.25;;;16.30;99.90;;;;;;5071975;28;20119;-73
2022/07/12 08:35:08;;;;;;;2.80;1.33;;;16.10;99.90;;;;;;5073375;28;20375;-73
2022/07/12 08:37:33;;;;;;;2.78;1.40;;;15.80;99.90;;;;;;5071964;28;20101;-73
2022/07/12 08:39:59;;;;;;;1.30;1.20;;;15.60;99.90;;;;;;5073043;28;20035;-73
2022/07/12 08:42:25;;;;;;;3.15;1.60;;;15.20;99.90;;;;;;5073207;28;20082;-74
2022/07/12 08:44:55;;;;;;;3.55;1.58;;;14.90;99.90;;;;;;5073222;28;20032;-74
2022/07/12 08:47:20;;;;;;;2.72;1.80;;;14.80;99.90;;;;;;5071842;28;20058;-73
2022/07/12 08:50:11;;;;;;;2.17;1.70;;;14.70;99.90;;;;;;5060397;28;20449;-73
2022/07/12 08:52:42;;;;;;;2.33;1.38;;;14.80;99.90;;;;;;5053008;28;20025;-74
2022/07/12 08:55:30;;;;;;;2.38;1.67;;;15.00;99.90;;;;;;5053000;28;20032;-73
2022/07/12 08:58:02;;;;;;;3.05;1.83;;;15.40;99.90;;;;;;5057378;28;20537;-73
2022/07/12 09:00:30;;;;;;;1.98;1.75;;;15.60;99.90;;;;;;5051446;28;20020;-73
2022/07/12 09:02:56;;;;;;;2.40;1.65;;;15.50;99.90;;;;;;5052922;28;20020;-74
2022/07/12 09:05:27;;;;;;;2.63;2.42;;;15.70;99.90;;;;;;5051587;28;20368;-73
2022/07/12 09:08:02;;;;;;;2.95;2.00;;;15.90;99.90;;;;;;5052802;28;20086;-73
2022/07/12 09:10:27;;;;;;;3.47;2.00;;;16.10;99.90;;;;;;5052929;28;20493;-73
2022/07/12 09:12:53;;;;;;;2.38;1.67;;;16.40;99.90;;;;;;5052843;28;20017;-74
2022/07/12 09:15:21;;;;;;;4.38;1.92;;;16.50;99.90;;;;;;5052959;28;20025;-73
2022/07/12 09:18:02;;;;;;;14.65;2.60;;;16.60;99.90;;;;;;5052729;28;20051;-73
2022/07/12 09:20:30;;;;;;;2.20;2.00;;;16.70;99.90;;;;;;5052828;28;20025;-73
2022/07/12 09:22:59;;;;;;;3.88;1.73;;;17.00;99.90;;;;;;5052646;28;20075;-73
2022/07/12 09:25:25;;;;;;;3.85;1.60;;;17.10;99.90;;;;;;5051537;28;20463;-73
2022/07/12 09:27:52;;;;;;;2.08;1.88;;;17.20;99.90;;;;;;5052598;28;20092;-74
2022/07/12 09:30:19;;;;;;;2.05;1.30;;;17.40;99.90;;;;;;5052657;28;20478;-73
2022/07/12 09:38:24;;;;;;;5.35;1.60;;;17.30;99.90;;;;;;5052546;28;20040;-73
2022/07/12 09:40:50;;;;;;;8.90;1.58;;;17.30;99.90;;;;;;5051358;28;20031;-73
2022/07/12 09:43:17;;;;;;;5.47;1.60;;;17.30;99.90;;;;;;5052571;28;20171;-74
2022/07/12 09:45:44;;;;;;;1.30;1.23;;;17.40;99.90;;;;;;5052561;28;20024;-73
2022/07/12 09:48:11;;;;;;;2.67;1.42;;;17.60;99.90;;;;;;5051099;28;20017;-73
2022/07/12 09:50:38;;;;;;;2.50;1.20;;;17.50;99.90;;;;;;5031601;28;20451;-73
2022/07/12 09:53:04;;;;;;;6.35;1.35;;;17.40;99.90;;;;;;5035138;28;20029;-74
2022/07/12 09:55:32;;;;;;;2.15;1.48;;;17.40;99.90;;;;;;5036466;28;20040;-73
2022/07/12 09:58:01;;;;;;;2.25;1.40;;;17.30;99.90;;;;;;5062548;28;20052;-74
2022/07/12 10:00:27;;;;;;;2.00;1.20;;;17.50;99.90;;;;;;5076228;28;20505;-73
2022/07/12 10:02:55;;;;;;;1.80;1.17;;;17.70;99.90;;;;;;5074899;28;20108;-73
2022/07/12 10:05:23;;;;;;;1.73;1.15;;;17.80;99.90;;;;;;5076196;28;20044;-73
2022/07/12 10:07:50;;;;;;;1.60;1.23;;;18.10;99.90;;;;;;5076128;28;20363;-74
2022/07/12 10:10:17;;;;;;;1.92;1.20;;;18.00;99.90;;;;;;5075964;28;20039;-73
2022/07/12 10:12:43;;;;;;;1.98;1.48;;;18.10;99.90;;;;;;5076131;28;20092;-74
2022/07/12 10:15:22;;;;;;;5.97;1.45;;;18.20;99.90;;;;;;5074591;28;20089;-73
2022/07/12 10:17:56;;;;;;;4.90;2.03;;;18.10;99.00;;;;;;5076081;28;20140;-73
2022/07/12 10:20:29;;;;;;;3.45;1.23;;;18.10;99.90;;;;;;5075826;28;20017;-73
2022/07/12 10:22:56;;;;;;;2.40;1.38;;;18.00;99.90;;;;;;5075984;28;20549;-73
2022/07/12 10:25:33;;;;;;;5.85;1.30;;;18.20;99.90;;;;;;5075796;28;20032;-73
2022/07/12 10:28:03;;;;;;;3.95;1.40;;;18.30;99.90;;;;;;5075770;28;20025;-73
2022/07/12 10:30:30;;;;;;;1.63;1.38;;;18.40;99.90;;;;;;5074357;28;20017;-73
2022/07/12 10:32:59;;;;;;;2.10;1.85;;;18.30;94.80;;;;;;5074283;28;20049;-73
2022/07/12 10:35:27;;;;;;;3.50;1.40;;;18.70;98.10;;;;;;5075565;28;20603;-73
2022/07/12 10:38:11;;;;;;;2.17;1.10;;;18.80;98.30;;;;;;5075617;28;20052;-73
2022/07/12 10:40:37;;;;;;;2.15;1.30;;;19.10;94.20;;;;;;5074137;28;20544;-73
2022/07/12 10:43:07;;;;;;;1.25;1.10;;;19.40;98.00;;;;;;5075579;28;20389;-73
2022/07/12 10:45:41;;;;;;;4.30;0.90;;;19.60;86.10;;;;;;5075734;28;20424;-73
2022/07/12 10:48:17;;;;;;;3.63;0.90;;;19.20;78.30;;;;;;5075464;28;20021;-73
2022/07/12 10:50:43;;;;;;;4.53;1.30;;;19.20;79.40;;;;;;5035513;28;20029;-73
2022/07/12 10:53:28;;;;;;;5.55;0.77;;;18.50;76.80;;;;;;5035464;28;20021;-74
2022/07/12 10:56:15;;;;;;;3.72;1.00;;;18.20;82.40;;;;;;5035235;28;20125;-73
2022/07/12 10:58:41;;;;;;;1.13;0.90;;;17.80;83.10;;;;;;5061813;28;20028;-73
2022/07/12 11:01:12;;;;;;;3.95;1.05;;;17.70;86.70;;;;;;5075164;28;20097;-73
2022/07/12 11:03:44;;;;;;;2.10;0.90;;;17.90;89.70;;;;;;5073925;28;20025;-73
2022/07/12 11:06:14;;;;;;;1.10;1.10;;;18.40;91.90;;;;;;5074069;28;20066;-72
2022/07/12 11:09:01;;;;;;;1.88;0.70;;;18.80;94.20;;;;;;5075193;28;20024;-73
2022/07/12 11:11:29;;;;;;;3.58;0.80;;;19.00;81.30;;;;;;5075252;28;20020;-73
2022/07/12 11:13:56;;;;;;;1.65;0.82;;;19.40;79.30;;;;;;5074964;28;20029;-73
2022/07/12 11:16:23;;;;;;;3.10;0.98;;;19.50;77.50;;;;;;5074742;28;20393;-74
2022/07/12 11:18:49;;;;;;;0.75;0.75;;;19.70;73.80;;;;;;5074923;28;20013;-73
2022/07/12 11:21:15;;;;;;;1.67;0.65;;;19.70;76.60;;;;;;5074830;28;20477;-74
2022/07/12 11:23:41;;;;;;;1.25;0.73;;;19.80;74.20;;;;;;5074852;28;20099;-74
2022/07/12 11:26:08;;;;;;;2.80;0.70;;;19.80;70.60;;;;;;5073391;28;20028;-73
2022/07/12 11:28:34;;;;;;;0.95;0.85;;;19.90;76.00;;;;;;5074637;28;20029;-73
2022/07/12 11:31:09;;;;;;;6.35;1.08;;;19.70;76.70;;;;;;5074315;28;20146;-73
2022/07/12 11:33:53;;;;;;;3.33;0.90;;;19.60;75.60;;;;;;5073432;28;20036;-73
2022/07/12 11:36:19;;;;;;;1.25;1.00;;;19.50;73.50;;;;;;5073093;28;20602;-73
2022/07/12 11:38:46;;;;;;;2.47;0.70;;;19.30;78.00;;;;;;5074539;28;20029;-73
2022/07/12 11:41:15;;;;;;;2.80;0.80;;;19.20;77.20;;;;;;5074351;28;20021;-73
2022/07/12 11:43:41;;;;;;;1.73;0.95;;;19.20;73.80;;;;;;5074505;28;20024;-73
2022/07/12 11:46:08;;;;;;;1.17;0.93;;;19.00;72.70;;;;;;5074255;28;20017;-73
2022/07/12 11:48:35;;;;;;;2.05;1.23;;;18.90;73.40;;;;;;5070418;28;20021;-74
2022/07/12 11:51:04;;;;;;;1.08;0.95;;;19.00;73.10;;;;;;5054157;28;20445;-73
2022/07/12 11:53:30;;;;;;;1.88;0.80;;;19.20;73.80;;;;;;5054264;28;20021;-73
2022/07/12 11:55:58;;;;;;;1.13;0.73;;;19.50;75.20;;;;;;5053998;28;20040;-73
2022/07/12 11:58:26;;;;;;;0.90;0.90;;;19.80;69.70;;;;;;5065849;28;20012;-73
2022/07/12 12:00:53;;;;;;;1.33;0.70;;;19.80;67.40;;;;;;5073883;28;20482;-73
2022/07/12 12:03:20;;;;;;;3.30;0.75;;;19.80;68.40;;;;;;5074076;28;20363;-73
2022/07/12 12:05:53;;;;;;;3.08;0.93;;;19.70;66.40;;;;;;5072499;28;20032;-73
2022/07/12 12:08:19;;;;;;;2.58;0.85;;;19.80;70.40;;;;;;5073949;28;20016;-71
2022/07/12 12:10:59;;;;;;;3.67;0.80;;;19.90;71.30;;;;;;5073746;28;20108;-70
2022/07/12 12:13:26;;;;;;;2.47;0.70;;;19.80;69.10;;;;;;5073415;28;20059;-71
2022/07/12 12:16:01;;;;;;;0.93;0.60;;;19.50;73.30;;;;;;5073538;28;20374;-71
2022/07/12 12:18:32;;;;;;;0.73;0.68;;;19.00;68.70;;;;;;5061674;28;20106;-71
2022/07/12 12:20:59;;;;;;;1.52;0.85;;;19.10;76.60;;;;;;5052334;28;20446;-71
2022/07/12 12:23:26;;;;;;;0.52;0.52;;;19.10;79.90;;;;;;5053602;28;20017;-71
2022/07/12 12:25:51;;;;;;;2.72;0.82;;;19.30;81.80;;;;;;5053646;28;20032;-71
2022/07/12 12:28:17;;;;;;;1.75;0.85;;;19.40;79.80;;;;;;5053528;28;20021;-71
2022/07/12 12:31:09;;;;;;;0.80;0.60;;;19.40;79.80;;;;;;5053412;28;20151;-71
2022/07/12 12:33:38;;;;;;;2.08;0.60;;;19.40;79.30;;;;;;5053243;28;20056;-71
2022/07/12 12:36:17;;;;;;;2.60;0.93;;;19.50;77.30;;;;;;5051897;28;20033;-70
2022/07/12 12:38:44;;;;;;;1.25;0.50;;;19.60;75.20;;;;;;5052003;28;20025;-71
2022/07/12 12:41:10;;;;;;;1.60;0.70;;;19.70;78.80;;;;;;5053140;28;20091;-71
2022/07/12 12:43:36;;;;;;;2.90;0.70;;;19.80;70.40;;;;;;5052099;28;20385;-71
2022/07/12 12:46:02;;;;;;;1.02;0.50;;;19.60;66.80;;;;;;5052044;28;20029;-71
2022/07/12 12:48:29;;;;;;;3.17;0.80;;;19.60;64.30;;;;;;5053071;28;20036;-71
2022/07/12 12:51:10;;;;;;;1.00;0.80;;;19.60;64.30;;;;;;5053083;28;20087;-70
2022/07/12 12:53:39;;;;;;;1.33;0.95;;;19.50;65.10;;;;;;5053223;28;20378;-71
2022/07/12 12:56:12;;;;;;;1.88;0.57;;;19.60;65.80;;;;;;5052890;28;20037;-70